Time;durP1;ratioP1;P1;durP2;ratioP2;P2;SDS_P1;SDS_P2;PMS_P1;PMS_P2;Temp;Humidity;BMP_temperature;BMP_pressure;BME280_temperature;BME280_humidity;BME280_pressure;Samples;Min_cycle;Max_cycle;Signal;HPM_P1;HPM_P2
2023/04/07 00:01:11;;;;;;;4.77;4.27;;;;;;;;;;6274763;28;20311;-62
2023/04/07 00:04:12;;;;;;;5.27;4.77;;;;;;;;;;6257620;28;20490;-62
2023/04/07 00:07:13;;;;;;;4.80;4.30;;;;;;;;;;6268448;28;20201;-61
2023/04/07 00:10:14;;;;;;;5.33;4.23;;;;;;;;;;6256243;28;20209;-62
2023/04/07 00:13:15;;;;;;;4.60;4.20;;;;;;;;;;6246943;28;20194;-62
2023/04/07 00:16:16;;;;;;;4.13;3.70;;;;;;;;;;6279518;28;20193;-62
2023/04/07 00:19:17;;;;;;;7.37;4.93;;;;;;;;;;6272212;28;20630;-61
2023/04/07 00:22:18;;;;;;;6.33;4.17;;;;;;;;;;6249940;28;20216;-61
2023/04/07 00:25:19;;;;;;;6.10;4.73;;;;;;;;;;6255303;28;20239;-62
2023/04/07 00:28:20;;;;;;;6.03;4.40;;;;;;;;;;6256082;28;20186;-62
2023/04/07 00:31:21;;;;;;;5.33;4.53;;;;;;;;;;6256895;28;20250;-62
2023/04/07 00:34:22;;;;;;;4.87;4.17;;;;;;;;;;6254263;28;20339;-62
2023/04/07 00:37:24;;;;;;;4.93;4.20;;;;;;;;;;6277975;28;20194;-62
2023/04/07 00:40:25;;;;;;;7.30;5.03;;;;;;;;;;6288747;28;20267;-62
2023/04/07 00:43:26;;;;;;;5.27;4.60;;;;;;;;;;6272491;28;20240;-61
2023/04/07 00:46:27;;;;;;;6.10;4.77;;;;;;;;;;6287928;28;20192;-61
2023/04/07 00:49:30;;;;;;;6.80;4.93;;;;;;;;;;6269870;28;20193;-62
2023/04/07 00:52:32;;;;;;;5.67;4.73;;;;;;;;;;6289046;28;20181;-62
2023/04/07 00:55:33;;;;;;;5.60;4.90;;;;;;;;;;6288903;28;20250;-62
2023/04/07 00:58:34;;;;;;;7.60;4.77;;;;;;;;;;6256160;28;20204;-62
2023/04/07 01:01:41;;;;;;;6.17;5.00;;;;;;;;;;6254791;28;20311;-62
2023/04/07 01:04:55;;;;;;;5.77;4.77;;;;;;;;;;6269425;28;20182;-62
2023/04/07 01:08:14;;;;;;;6.23;5.00;;;;;;;;;;6277932;28;20198;-62
2023/04/07 01:11:30;;;;;;;6.03;5.10;;;;;;;;;;6270117;28;20230;-62
2023/04/07 01:14:35;;;;;;;5.67;4.77;;;;;;;;;;6268987;28;20249;-61
2023/04/07 01:17:38;;;;;;;4.73;4.20;;;;;;;;;;6266723;28;20207;-61
2023/04/07 01:20:40;;;;;;;5.33;4.47;;;;;;;;;;6271912;28;20213;-61
2023/04/07 01:23:45;;;;;;;5.47;4.00;;;;;;;;;;6266337;28;20185;-61
2023/04/07 01:26:46;;;;;;;6.40;4.83;;;;;;;;;;6272971;28;20209;-61
2023/04/07 01:29:49;;;;;;;5.13;4.60;;;;;;;;;;6274509;28;20244;-61
2023/04/07 01:32:51;;;;;;;6.67;4.20;;;;;;;;;;6291484;28;20283;-61
2023/04/07 01:35:52;;;;;;;5.30;4.50;;;;;;;;;;6267724;28;20225;-62
2023/04/07 01:38:54;;;;;;;5.10;4.60;;;;;;;;;;6256320;28;20197;-62
2023/04/07 01:41:56;;;;;;;7.13;4.50;;;;;;;;;;6249605;28;20226;-61
2023/04/07 01:44:57;;;;;;;5.90;4.37;;;;;;;;;;6260243;28;20217;-61
2023/04/07 01:47:59;;;;;;;5.00;4.10;;;;;;;;;;6257131;28;20196;-62
2023/04/07 01:51:00;;;;;;;5.87;4.03;;;;;;;;;;6251444;28;20186;-62
2023/04/07 01:54:02;;;;;;;4.77;4.27;;;;;;;;;;6285055;28;20190;-62
2023/04/07 01:57:03;;;;;;;6.00;4.43;;;;;;;;;;6293403;28;20224;-62
2023/04/07 02:00:05;;;;;;;4.63;4.03;;;;;;;;;;6259028;28;20190;-62
2023/04/07 02:03:11;;;;;;;6.40;4.07;;;;;;;;;;6269391;28;20205;-62
2023/04/07 02:06:15;;;;;;;5.33;4.23;;;;;;;;;;6281278;28;20212;-62
2023/04/07 02:09:17;;;;;;;5.17;3.87;;;;;;;;;;6292058;28;20182;-62
2023/04/07 02:12:19;;;;;;;4.47;4.07;;;;;;;;;;6292745;28;20215;-62
2023/04/07 02:15:21;;;;;;;6.03;4.47;;;;;;;;;;6260651;28;20254;-62
2023/04/07 02:18:23;;;;;;;5.07;4.43;;;;;;;;;;6266135;28;20209;-62
2023/04/07 02:21:24;;;;;;;7.93;4.37;;;;;;;;;;6256867;28;20213;-62
2023/04/07 02:24:25;;;;;;;5.20;4.70;;;;;;;;;;6275799;28;20327;-62
2023/04/07 02:27:26;;;;;;;5.93;4.83;;;;;;;;;;6260058;28;20185;-62
2023/04/07 02:30:28;;;;;;;6.50;4.60;;;;;;;;;;6275130;28;20186;-62
2023/04/07 02:33:29;;;;;;;6.93;4.70;;;;;;;;;;6259298;28;20245;-62
2023/04/07 02:36:30;;;;;;;7.77;5.20;;;;;;;;;;6291915;28;20197;-62
2023/04/07 02:39:31;;;;;;;5.23;4.47;;;;;;;;;;6291455;28;20192;-62
2023/04/07 02:42:32;;;;;;;5.20;4.67;;;;;;;;;;6247434;28;20217;-62
2023/04/07 02:45:33;;;;;;;5.30;4.80;;;;;;;;;;6276249;28;20182;-62
2023/04/07 02:48:34;;;;;;;7.10;5.40;;;;;;;;;;6292191;28;20217;-62
2023/04/07 02:51:35;;;;;;;5.43;4.40;;;;;;;;;;6288796;28;20195;-62
2023/04/07 02:54:36;;;;;;;6.33;5.30;;;;;;;;;;6253019;28;20194;-62
2023/04/07 02:57:37;;;;;;;7.27;4.87;;;;;;;;;;6291964;28;20194;-60
2023/04/07 03:00:38;;;;;;;4.80;4.30;;;;;;;;;;6291447;28;20202;-61
2023/04/07 03:03:41;;;;;;;5.53;4.73;;;;;;;;;;6257904;28;20190;-61
2023/04/07 03:06:42;;;;;;;7.27;5.10;;;;;;;;;;6255806;28;20225;-62
2023/04/07 03:09:43;;;;;;;7.57;5.33;;;;;;;;;;6258497;28;20190;-62
2023/04/07 03:12:44;;;;;;;6.47;4.77;;;;;;;;;;6279250;28;20190;-61
2023/04/07 03:15:46;;;;;;;6.20;4.70;;;;;;;;;;6290267;28;20205;-61
2023/04/07 03:18:54;;;;;;;5.20;4.67;;;;;;;;;;6275364;28;20186;-61
2023/04/07 03:21:55;;;;;;;5.70;5.00;;;;;;;;;;6291155;28;20220;-61
2023/04/07 03:24:56;;;;;;;7.90;5.10;;;;;;;;;;6273975;28;20259;-61
2023/04/07 03:27:57;;;;;;;6.53;4.70;;;;;;;;;;6256738;28;20189;-61
2023/04/07 03:30:58;;;;;;;5.17;4.67;;;;;;;;;;6257407;28;20194;-61
2023/04/07 03:33:59;;;;;;;6.70;5.10;;;;;;;;;;6273785;28;20244;-61
2023/04/07 03:37:00;;;;;;;5.23;4.70;;;;;;;;;;6275076;28;20193;-61
2023/04/07 03:40:01;;;;;;;5.70;5.03;;;;;;;;;;6256296;28;20190;-61
2023/04/07 03:43:02;;;;;;;6.07;4.47;;;;;;;;;;6248402;28;20210;-61
2023/04/07 03:46:03;;;;;;;5.57;4.83;;;;;;;;;;6283788;28;20218;-61
2023/04/07 03:49:05;;;;;;;7.90;4.90;;;;;;;;;;6258070;28;20178;-61
2023/04/07 03:52:06;;;;;;;6.10;4.73;;;;;;;;;;6253060;28;20250;-61
2023/04/07 03:55:07;;;;;;;5.80;4.83;;;;;;;;;;6257188;28;20284;-61
2023/04/07 03:58:09;;;;;;;5.60;5.07;;;;;;;;;;6290699;28;20186;-61
2023/04/07 04:01:10;;;;;;;6.87;5.27;;;;;;;;;;6290243;28;20209;-61
2023/04/07 04:04:11;;;;;;;6.20;5.07;;;;;;;;;;6257784;28;20196;-61
2023/04/07 04:07:12;;;;;;;5.33;4.83;;;;;;;;;;6257634;28;20217;-61
2023/04/07 04:10:15;;;;;;;7.13;5.63;;;;;;;;;;6260171;28;20188;-61
2023/04/07 04:13:16;;;;;;;5.30;4.77;;;;;;;;;;6257656;28;20212;-61
2023/04/07 04:16:17;;;;;;;7.10;5.33;;;;;;;;;;6256382;28;20868;-62
2023/04/07 04:19:18;;;;;;;6.60;5.57;;;;;;;;;;6256837;28;20203;-63
2023/04/07 04:22:19;;;;;;;7.33;5.70;;;;;;;;;;6290012;28;20219;-60
2023/04/07 04:25:20;;;;;;;7.83;4.67;;;;;;;;;;6274138;28;20199;-60
2023/04/07 04:28:21;;;;;;;6.43;4.53;;;;;;;;;;6290440;28;20311;-60
2023/04/07 04:31:22;;;;;;;8.87;5.47;;;;;;;;;;6255858;28;20288;-61
2023/04/07 04:34:23;;;;;;;7.80;4.90;;;;;;;;;;6287489;28;20232;-60
2023/04/07 04:37:24;;;;;;;5.63;4.77;;;;;;;;;;6254915;28;20725;-61
2023/04/07 04:40:25;;;;;;;7.07;4.57;;;;;;;;;;6271780;28;20197;-60
2023/04/07 04:43:26;;;;;;;6.87;5.20;;;;;;;;;;6255605;28;20270;-61
2023/04/07 04:46:27;;;;;;;8.60;6.07;;;;;;;;;;6255114;28;20284;-61
2023/04/07 04:49:28;;;;;;;6.50;5.17;;;;;;;;;;6256279;28;20347;-61
2023/04/07 04:52:30;;;;;;;6.53;4.87;;;;;;;;;;6255304;28;20193;-61
2023/04/07 04:55:31;;;;;;;6.30;5.27;;;;;;;;;;6270480;28;20228;-62
2023/04/07 04:58:32;;;;;;;6.10;4.77;;;;;;;;;;6289382;28;20178;-61
2023/04/07 05:01:33;;;;;;;6.20;4.87;;;;;;;;;;6255725;28;20213;-62
2023/04/07 05:04:34;;;;;;;6.97;5.60;;;;;;;;;;6288245;28;20256;-62
2023/04/07 05:07:36;;;;;;;6.20;5.00;;;;;;;;;;6247231;28;20200;-61
2023/04/07 05:10:40;;;;;;;5.77;5.17;;;;;;;;;;6249081;28;20216;-63
2023/04/07 05:13:41;;;;;;;5.90;4.73;;;;;;;;;;6242991;28;20200;-61
2023/04/07 05:16:42;;;;;;;6.73;5.70;;;;;;;;;;6272438;28;20192;-63
2023/04/07 05:19:43;;;;;;;7.80;5.10;;;;;;;;;;6256143;28;20189;-61
2023/04/07 05:22:44;;;;;;;6.77;5.37;;;;;;;;;;6281445;28;20217;-61
2023/04/07 05:25:45;;;;;;;6.07;5.00;;;;;;;;;;6282602;28;20264;-60
2023/04/07 05:28:46;;;;;;;7.80;5.00;;;;;;;;;;6281904;28;20196;-60
2023/04/07 05:31:47;;;;;;;6.80;5.50;;;;;;;;;;6256105;28;20209;-60
2023/04/07 05:34:48;;;;;;;9.00;5.80;;;;;;;;;;6259009;28;20245;-61
2023/04/07 05:37:50;;;;;;;5.33;4.83;;;;;;;;;;6255070;28;20210;-60
2023/04/07 05:40:51;;;;;;;6.50;5.50;;;;;;;;;;6255859;28;20198;-60
2023/04/07 05:43:52;;;;;;;8.73;6.00;;;;;;;;;;6255440;28;20189;-59
2023/04/07 05:46:53;;;;;;;7.57;6.33;;;;;;;;;;6245450;28;20289;-60
2023/04/07 05:49:54;;;;;;;6.53;5.07;;;;;;;;;;6261867;28;20232;-60
2023/04/07 05:52:55;;;;;;;7.37;5.93;;;;;;;;;;6284161;28;20193;-60
2023/04/07 05:55:56;;;;;;;7.97;5.97;;;;;;;;;;6269909;28;20287;-60
2023/04/07 05:58:59;;;;;;;5.90;5.30;;;;;;;;;;6254858;28;20200;-61
2023/04/07 06:02:00;;;;;;;7.23;6.10;;;;;;;;;;6249099;28;20259;-61
2023/04/07 06:05:01;;;;;;;6.67;5.47;;;;;;;;;;6253909;28;20185;-61
2023/04/07 06:08:02;;;;;;;6.53;5.77;;;;;;;;;;6278424;28;20190;-61
2023/04/07 06:11:03;;;;;;;8.00;5.93;;;;;;;;;;6287931;28;20201;-61
2023/04/07 06:14:04;;;;;;;8.47;5.87;;;;;;;;;;6247501;28;20277;-61
2023/04/07 06:17:05;;;;;;;8.50;5.97;;;;;;;;;;6255740;28;20289;-60
2023/04/07 06:20:07;;;;;;;7.30;5.93;;;;;;;;;;6259443;28;20200;-61
2023/04/07 06:23:08;;;;;;;7.40;5.67;;;;;;;;;;6248367;28;20206;-60
2023/04/07 06:26:10;;;;;;;10.43;6.13;;;;;;;;;;6255505;28;20190;-59
2023/04/07 06:29:11;;;;;;;8.00;6.13;;;;;;;;;;6290078;28;20186;-60
2023/04/07 06:32:12;;;;;;;9.67;5.93;;;;;;;;;;6288859;28;20204;-61
2023/04/07 06:35:14;;;;;;;7.27;6.57;;;;;;;;;;6255229;28;20252;-60
2023/04/07 06:38:15;;;;;;;8.00;5.43;;;;;;;;;;6266072;28;20289;-61
2023/04/07 06:41:16;;;;;;;7.87;5.83;;;;;;;;;;6275344;28;20228;-61
2023/04/07 06:44:17;;;;;;;7.60;5.37;;;;;;;;;;6251811;28;20205;-61
2023/04/07 06:47:18;;;;;;;8.10;5.97;;;;;;;;;;6282357;28;20219;-61
2023/04/07 06:50:21;;;;;;;6.20;5.33;;;;;;;;;;6249220;28;20197;-61
2023/04/07 06:53:22;;;;;;;10.80;6.80;;;;;;;;;;6253094;28;20276;-61
2023/04/07 06:56:23;;;;;;;8.93;6.70;;;;;;;;;;6266958;28;20206;-61
2023/04/07 06:59:24;;;;;;;9.90;6.60;;;;;;;;;;6265333;28;20307;-61
2023/04/07 07:02:25;;;;;;;9.63;6.70;;;;;;;;;;6255448;28;20223;-61
2023/04/07 07:05:26;;;;;;;9.50;6.53;;;;;;;;;;6253664;28;20201;-61
2023/04/07 07:08:28;;;;;;;10.00;6.50;;;;;;;;;;6256396;28;20225;-61
2023/04/07 07:11:29;;;;;;;7.67;6.40;;;;;;;;;;6288108;28;20205;-60
2023/04/07 07:14:30;;;;;;;7.27;5.67;;;;;;;;;;6244075;28;20217;-59
2023/04/07 07:17:31;;;;;;;6.93;5.37;;;;;;;;;;6247382;28;20202;-60
2023/04/07 07:20:32;;;;;;;8.20;5.40;;;;;;;;;;6255121;28;20221;-60
2023/04/07 07:23:33;;;;;;;8.47;5.53;;;;;;;;;;6241431;28;20359;-60
2023/04/07 07:26:35;;;;;;;7.03;5.40;;;;;;;;;;6267438;28;20209;-60
2023/04/07 07:29:36;;;;;;;7.10;5.87;;;;;;;;;;6253849;28;20198;-61
2023/04/07 07:32:37;;;;;;;6.90;5.73;;;;;;;;;;6249063;28;20200;-60
2023/04/07 07:35:39;;;;;;;9.53;5.27;;;;;;;;;;6254209;28;20225;-61
2023/04/07 07:38:40;;;;;;;8.07;6.00;;;;;;;;;;6254153;28;20230;-61
2023/04/07 07:41:41;;;;;;;12.07;7.23;;;;;;;;;;6253294;28;20213;-60
2023/04/07 07:44:42;;;;;;;10.47;7.40;;;;;;;;;;6253828;28;20189;-61
2023/04/07 07:47:43;;;;;;;10.83;6.93;;;;;;;;;;6250599;28;20228;-61
2023/04/07 07:50:44;;;;;;;12.37;7.00;;;;;;;;;;6248532;28;20190;-61
2023/04/07 07:53:45;;;;;;;6.47;5.37;;;;;;;;;;6273809;28;20212;-61
2023/04/07 07:56:46;;;;;;;7.00;5.93;;;;;;;;;;6269832;28;20228;-61
2023/04/07 07:59:47;;;;;;;8.63;5.87;;;;;;;;;;6255270;28;20193;-61
2023/04/07 08:02:48;;;;;;;5.20;4.17;;;;;;;;;;6285131;28;20233;-61
2023/04/07 08:05:50;;;;;;;6.43;5.23;;;;;;;;;;6280997;28;20193;-59
2023/04/07 08:08:51;;;;;;;8.10;5.40;;;;;;;;;;6254053;28;20216;-58
2023/04/07 08:11:52;;;;;;;12.13;6.63;;;;;;;;;;6287820;28;20223;-59
2023/04/07 08:14:53;;;;;;;7.43;6.00;;;;;;;;;;6280082;28;20208;-58
2023/04/07 08:17:54;;;;;;;8.47;5.37;;;;;;;;;;6252213;28;20201;-60
2023/04/07 08:20:56;;;;;;;7.90;5.10;;;;;;;;;;6270272;28;20278;-59
2023/04/07 08:23:57;;;;;;;7.93;5.40;;;;;;;;;;6246285;28;20198;-59
2023/04/07 08:26:58;;;;;;;5.93;5.00;;;;;;;;;;6286216;28;20225;-59
2023/04/07 08:30:00;;;;;;;6.67;4.80;;;;;;;;;;6284412;28;20204;-59
2023/04/07 08:33:01;;;;;;;6.83;5.03;;;;;;;;;;6284383;28;20234;-59
2023/04/07 08:36:02;;;;;;;6.50;5.57;;;;;;;;;;6269981;28;20243;-59
2023/04/07 08:39:04;;;;;;;8.67;5.63;;;;;;;;;;6251827;28;20197;-59
2023/04/07 08:42:07;;;;;;;8.27;5.90;;;;;;;;;;6252274;28;20215;-60
2023/04/07 08:45:08;;;;;;;6.43;4.77;;;;;;;;;;6268333;28;20190;-59
2023/04/07 08:48:17;;;;;;;6.37;5.40;;;;;;;;;;6272042;28;20182;-59
2023/04/07 08:51:37;;;;;;;5.27;4.57;;;;;;;;;;6268803;28;20194;-59
2023/04/07 08:54:38;;;;;;;7.07;4.90;;;;;;;;;;6285283;28;20205;-58
2023/04/07 08:57:40;;;;;;;5.70;4.53;;;;;;;;;;6245397;28;20202;-59
2023/04/07 09:00:45;;;;;;;6.23;3.87;;;;;;;;;;6253226;28;20198;-59
2023/04/07 09:03:46;;;;;;;6.50;4.77;;;;;;;;;;6269148;28;20214;-59
2023/04/07 09:06:47;;;;;;;4.27;3.87;;;;;;;;;;6268598;28;20192;-59
2023/04/07 09:09:48;;;;;;;4.57;3.40;;;;;;;;;;6285633;28;20181;-59
2023/04/07 09:12:49;;;;;;;5.60;4.53;;;;;;;;;;6276616;28;20198;-59
2023/04/07 09:15:50;;;;;;;5.47;3.80;;;;;;;;;;6270323;28;20189;-59
2023/04/07 09:18:52;;;;;;;4.80;3.53;;;;;;;;;;6284383;28;20201;-60
2023/04/07 09:21:53;;;;;;;4.23;3.73;;;;;;;;;;6287146;28;20210;-59
2023/04/07 09:25:08;;;;;;;8.27;3.77;;;;;;;;;;6252943;28;20258;-59
2023/04/07 09:28:09;;;;;;;5.30;3.50;;;;;;;;;;6267839;28;20200;-59
2023/04/07 09:31:11;;;;;;;4.73;3.80;;;;;;;;;;6252010;28;20193;-59
2023/04/07 09:34:32;;;;;;;3.67;3.37;;;;;;;;;;6283364;28;20230;-59
2023/04/07 09:37:33;;;;;;;4.10;3.70;;;;;;;;;;6266705;28;20186;-59
2023/04/07 09:40:35;;;;;;;6.17;4.27;;;;;;;;;;6272446;28;20270;-59
2023/04/07 09:43:37;;;;;;;5.87;3.97;;;;;;;;;;6260780;28;20201;-59
2023/04/07 09:46:53;;;;;;;3.77;3.40;;;;;;;;;;6265309;28;20210;-59
2023/04/07 09:49:54;;;;;;;5.93;3.63;;;;;;;;;;6258035;28;20191;-59
2023/04/07 09:52:55;;;;;;;6.83;4.57;;;;;;;;;;6265746;28;20190;-59
2023/04/07 09:55:57;;;;;;;5.30;3.80;;;;;;;;;;6255570;28;20224;-60
2023/04/07 09:58:59;;;;;;;4.37;3.73;;;;;;;;;;6278822;28;20194;-59
2023/04/07 10:02:00;;;;;;;4.13;3.73;;;;;;;;;;6248402;28;20213;-59
2023/04/07 10:05:01;;;;;;;3.67;3.37;;;;;;;;;;6291559;28;20189;-59
2023/04/07 10:08:02;;;;;;;4.03;3.50;;;;;;;;;;6291022;28;20217;-59
2023/04/07 10:11:05;;;;;;;5.67;4.00;;;;;;;;;;6257844;28;20197;-60
2023/04/07 10:14:06;;;;;;;4.70;3.60;;;;;;;;;;6255864;28;20197;-59
2023/04/07 10:17:08;;;;;;;5.23;4.20;;;;;;;;;;6274727;28;20202;-59
2023/04/07 10:20:10;;;;;;;7.63;4.43;;;;;;;;;;6261935;28;20193;-59
2023/04/07 10:23:16;;;;;;;6.50;5.60;;;;;;;;;;6267444;28;20294;-59
2023/04/07 10:26:19;;;;;;;5.80;4.57;;;;;;;;;;6272374;28;20423;-59
2023/04/07 10:29:21;;;;;;;4.83;4.30;;;;;;;;;;6288421;28;20187;-59
2023/04/07 10:32:22;;;;;;;6.70;4.57;;;;;;;;;;6249937;28;20195;-59
2023/04/07 10:35:23;;;;;;;6.47;4.90;;;;;;;;;;6244170;28;20237;-59
2023/04/07 10:38:25;;;;;;;4.83;4.33;;;;;;;;;;6258439;28;20193;-59
2023/04/07 10:41:36;;;;;;;5.67;4.30;;;;;;;;;;6288875;28;20302;-60
2023/04/07 10:44:43;;;;;;;6.00;4.43;;;;;;;;;;6273542;28;20218;-59
2023/04/07 10:48:04;;;;;;;4.03;3.70;;;;;;;;;;6273100;28;20186;-59
2023/04/07 10:51:06;;;;;;;5.20;3.53;;;;;;;;;;6272193;28;20187;-59
2023/04/07 10:54:21;;;;;;;6.67;4.53;;;;;;;;;;6288780;28;20409;-59
2023/04/07 10:57:23;;;;;;;5.07;3.73;;;;;;;;;;6246405;28;20213;-59
2023/04/07 11:00:24;;;;;;;4.80;4.30;;;;;;;;;;6289299;28;20206;-60
2023/04/07 11:03:25;;;;;;;4.17;3.43;;;;;;;;;;6252296;28;20241;-59
2023/04/07 11:06:27;;;;;;;5.10;3.97;;;;;;;;;;6251151;28;20182;-59
2023/04/07 11:09:28;;;;;;;4.33;3.63;;;;;;;;;;6270729;28;20197;-59
2023/04/07 11:12:30;;;;;;;4.37;3.97;;;;;;;;;;6255948;28;20269;-60
2023/04/07 11:15:31;;;;;;;5.03;3.70;;;;;;;;;;6255646;28;20198;-60
2023/04/07 11:18:32;;;;;;;4.37;3.97;;;;;;;;;;6263591;28;20288;-60
2023/04/07 11:21:33;;;;;;;3.93;3.53;;;;;;;;;;6249656;28;20233;-59
2023/04/07 11:24:37;;;;;;;5.13;3.87;;;;;;;;;;6270111;28;20212;-59
2023/04/07 11:27:38;;;;;;;4.83;4.37;;;;;;;;;;6270682;28;20186;-59
2023/04/07 11:30:44;;;;;;;4.70;3.67;;;;;;;;;;6261131;28;20189;-59
2023/04/07 11:33:52;;;;;;;3.93;3.63;;;;;;;;;;6270153;28;20398;-59
2023/04/07 11:36:58;;;;;;;4.13;3.73;;;;;;;;;;6287604;28;20198;-59
2023/04/07 11:39:59;;;;;;;5.13;4.03;;;;;;;;;;6254310;28;20194;-59
2023/04/07 11:43:02;;;;;;;6.00;3.80;;;;;;;;;;6252846;28;20217;-59
2023/04/07 11:46:03;;;;;;;4.37;3.90;;;;;;;;;;6245508;28;20194;-59
2023/04/07 11:49:15;;;;;;;4.10;3.70;;;;;;;;;;6268041;28;20189;-59
2023/04/07 11:52:16;;;;;;;4.63;4.20;;;;;;;;;;6269411;28;20198;-59
2023/04/07 11:55:23;;;;;;;4.90;3.70;;;;;;;;;;6272350;28;20201;-59
2023/04/07 11:58:24;;;;;;;4.70;4.30;;;;;;;;;;6286558;28;20195;-60
2023/04/07 12:01:38;;;;;;;4.70;3.90;;;;;;;;;;6268227;28;20214;-60
2023/04/07 12:04:54;;;;;;;4.50;4.10;;;;;;;;;;6285828;28;20221;-60
2023/04/07 12:07:56;;;;;;;4.67;3.97;;;;;;;;;;6287784;28;20217;-60
2023/04/07 12:11:04;;;;;;;6.47;3.83;;;;;;;;;;6288709;28;20186;-60
2023/04/07 12:14:05;;;;;;;4.30;3.53;;;;;;;;;;6245451;28;20194;-61
2023/04/07 12:17:08;;;;;;;3.93;3.60;;;;;;;;;;6254202;28;20191;-61
2023/04/07 12:20:09;;;;;;;5.60;4.03;;;;;;;;;;6288005;28;20190;-60
2023/04/07 12:23:10;;;;;;;5.37;4.20;;;11.90;24.20;;;;;;6251832;28;20277;-61
2023/04/07 12:26:11;;;;;;;4.73;3.63;;;18.60;21.70;;;;;;6255055;28;20195;-60
2023/04/07 12:29:13;;;;;;;4.63;4.17;;;;;;;;;;6238502;28;20190;-60
2023/04/07 12:32:13;;;;;;;6.03;3.87;;;19.20;22.50;;;;;;6261565;28;20193;-60
2023/04/07 12:35:14;;;;;;;4.47;4.17;;;;;;;;;;6236925;28;20256;-61
2023/04/07 12:38:15;;;;;;;4.60;4.20;;;22.80;20.50;;;;;;6265687;28;20190;-60
2023/04/07 12:41:16;;;;;;;4.20;3.90;;;;;;;;;;6236961;28;20194;-60
2023/04/07 12:44:17;;;;;;;3.83;3.40;;;;;;;;;;6253791;28;20224;-60
2023/04/07 12:47:18;;;;;;;3.77;3.37;;;26.00;19.00;;;;;;6252837;28;20207;-60
2023/04/07 12:50:18;;;;;;;4.90;3.97;;;26.10;18.10;;;;;;6268756;28;20193;-60
2023/04/07 12:53:19;;;;;;;4.00;3.60;;;26.80;17.90;;;;;;6235803;28;20206;-59
2023/04/07 12:56:23;;;;;;;4.40;4.07;;;27.50;18.90;;;;;;6252168;28;20193;-59
2023/04/07 12:59:24;;;;;;;4.17;3.87;;;26.80;18.10;;;;;;6237873;28;20218;-59
2023/04/07 13:02:25;;;;;;;4.50;3.90;;;26.60;18.20;;;;;;6253105;28;20221;-59
2023/04/07 13:05:27;;;;;;;4.13;3.73;;;;;;;;;;6257445;28;20197;-59
2023/04/07 13:08:28;;;;;;;4.17;3.80;;;;;;;;;;6287939;28;20212;-59
2023/04/07 13:11:29;;;;;;;4.70;4.33;;;;;;;;;;6285996;28;20192;-60
2023/04/07 13:14:30;;;;;;;5.77;4.90;;;;;;;;;;6285942;28;20186;-60
2023/04/07 13:17:31;;;;;;;7.37;5.70;;;;;;;;;;6244750;28;20185;-60
2023/04/07 13:20:32;;;;;;;7.23;6.07;;;;;;;;;;6269297;28;20320;-59
2023/04/07 13:23:33;;;;;;;7.57;5.33;;;;;;;;;;6248236;28;20209;-59
2023/04/07 13:26:34;;;;;;;6.70;6.10;;;;;;;;;;6249209;28;20193;-60
2023/04/07 13:29:35;;;;;;;7.43;6.13;;;;;;;;;;6256681;28;20205;-60
2023/04/07 13:32:36;;;;;;;7.50;6.80;;;;;;;;;;6259617;28;20225;-59
2023/04/07 13:35:37;;;;;;;6.67;5.77;;;;;;;;;;6271130;28;20244;-59
2023/04/07 13:38:40;;;;;;;6.43;5.83;;;27.60;18.00;;;;;;6290207;28;20197;-59
2023/04/07 13:41:41;;;;;;;7.47;5.40;;;25.00;20.80;;;;;;6241624;28;20221;-59
2023/04/07 13:44:46;;;;;;;6.47;5.90;;;25.00;21.80;;;;;;6273535;28;20185;-59
2023/04/07 13:47:46;;;;;;;6.47;5.87;;;25.60;20.70;;;;;;6242186;28;20205;-60
2023/04/07 13:50:47;;;;;;;5.97;5.33;;;26.00;21.00;;;;;;6273963;28;20190;-60
2023/04/07 13:53:48;;;;;;;6.33;5.33;;;26.10;20.80;;;;;;6237137;28;20204;-60
2023/04/07 13:56:49;;;;;;;6.77;6.10;;;26.70;20.70;;;;;;6257158;28;20194;-60
2023/04/07 13:59:53;;;;;;;6.83;6.23;;;26.80;19.80;;;;;;6250553;28;20194;-60
2023/04/07 14:02:54;;;;;;;6.23;5.63;;;26.60;20.10;;;;;;6256705;28;20300;-60
2023/04/07 14:06:00;;;;;;;5.87;5.37;;;26.40;20.30;;;;;;6253462;28;20191;-60
2023/04/07 14:09:00;;;;;;;6.80;5.90;;;25.70;21.00;;;;;;6261129;28;20193;-60
2023/04/07 14:12:01;;;;;;;6.83;6.00;;;24.60;21.40;;;;;;6285045;28;20193;-60
2023/04/07 14:15:02;;;;;;;6.50;5.90;;;23.70;21.70;;;;;;6239726;28;20419;-60
2023/04/07 14:18:05;;;;;;;6.80;6.13;;;;;;;;;;6256580;28;20197;-60
2023/04/07 14:21:06;;;;;;;7.10;6.40;;;;;;;;;;6258435;28;20190;-61
2023/04/07 14:24:06;;;;;;;6.10;5.60;;;22.90;22.30;;;;;;6244467;28;20249;-61
2023/04/07 14:27:07;;;;;;;6.47;5.73;;;21.90;23.50;;;;;;6272349;28;20191;-60
2023/04/07 14:30:08;;;;;;;6.93;6.30;;;22.20;23.00;;;;;;6239683;28;20198;-61
2023/04/07 14:33:09;;;;;;;6.60;6.00;;;22.80;23.10;;;;;;6273415;28;20321;-61
2023/04/07 14:36:10;;;;;;;7.50;6.27;;;23.00;22.40;;;;;;6254823;28;20194;-58
2023/04/07 14:39:11;;;;;;;6.17;5.57;;;23.00;22.50;;;;;;6257763;28;20194;-60
2023/04/07 14:42:12;;;;;;;6.03;5.43;;;22.80;22.90;;;;;;6273933;28;20293;-60
2023/04/07 14:45:12;;;;;;;6.23;5.63;;;22.60;22.70;;;;;;6239619;28;20190;-60
2023/04/07 14:48:13;;;;;;;7.10;6.40;;;22.20;23.10;;;;;;6256209;28;20215;-60
2023/04/07 14:51:14;;;;;;;5.90;5.30;;;21.60;23.50;;;;;;6273211;28;20193;-60
2023/04/07 14:54:14;;;;;;;7.83;7.03;;;21.50;23.40;;;;;;6254973;28;20189;-60
2023/04/07 14:57:15;;;;;;;6.97;6.27;;;21.70;23.00;;;;;;6267452;28;20193;-60
2023/04/07 15:00:16;;;;;;;7.20;6.50;;;21.70;22.80;;;;;;6267985;28;20225;-60
2023/04/07 15:03:16;;;;;;;7.20;6.50;;;21.80;23.30;;;;;;6266397;28;20213;-59
2023/04/07 15:06:18;;;;;;;6.57;5.97;;;21.70;22.90;;;;;;6239873;28;20204;-59
2023/04/07 15:09:18;;;;;;;6.40;5.80;;;21.70;23.10;;;;;;6271556;28;20312;-59
2023/04/07 15:12:19;;;;;;;6.77;6.13;;;21.90;22.80;;;;;;6254030;28;20199;-59
2023/04/07 15:15:20;;;;;;;7.10;5.77;;;22.30;23.10;;;;;;6239012;28;20198;-60
2023/04/07 15:18:20;;;;;;;7.20;6.50;;;22.30;22.70;;;;;;6239338;28;20292;-59
2023/04/07 15:21:21;;;;;;;6.27;5.50;;;22.60;23.40;;;;;;6238637;28;20212;-59
2023/04/07 15:24:22;;;;;;;6.20;5.60;;;23.20;22.50;;;;;;6254977;28;20193;-59
2023/04/07 15:27:22;;;;;;;6.73;5.90;;;23.60;22.10;;;;;;6256499;28;20284;-59
2023/04/07 15:30:23;;;;;;;6.27;5.60;;;24.20;21.60;;;;;;6234443;28;20202;-60
2023/04/07 15:33:24;;;;;;;7.77;6.70;;;24.40;21.50;;;;;;6247041;28;20283;-60
2023/04/07 15:36:24;;;;;;;7.03;6.40;;;24.40;21.80;;;;;;6271350;28;20221;-60
2023/04/07 15:39:25;;;;;;;7.67;6.83;;;23.90;22.30;;;;;;6237052;28;20251;-60
2023/04/07 15:42:26;;;;;;;12.30;8.10;;;23.00;22.90;;;;;;6252620;28;20271;-60
2023/04/07 15:45:27;;;;;;;10.23;8.50;;;22.00;23.80;;;;;;6251969;28;20223;-60
2023/04/07 15:48:27;;;;;;;9.57;8.20;;;21.00;25.30;;;;;;6236862;28;20222;-59
2023/04/07 15:51:29;;;;;;;10.00;7.90;;;;;;;;;;6234266;28;20227;-60
2023/04/07 15:54:31;;;;;;;8.90;8.00;;;20.40;26.10;;;;;;6285984;28;20268;-59
2023/04/07 15:57:32;;;;;;;8.87;7.83;;;19.50;27.30;;;;;;6253535;28;20193;-59
2023/04/07 16:00:34;;;;;;;9.03;7.87;;;19.20;27.70;;;;;;6269124;28;20182;-59
2023/04/07 16:03:35;;;;;;;9.70;8.70;;;;;;;;;;6287573;28;20206;-59
2023/04/07 16:06:37;;;;;;;10.17;9.17;;;;;;;;;;6253026;28;20186;-59
2023/04/07 16:09:38;;;;;;;10.57;8.30;;;19.10;27.30;;;;;;6250729;28;20190;-59
2023/04/07 16:12:39;;;;;;;9.97;8.97;;;;;;;;;;6239767;28;20205;-59
2023/04/07 16:15:40;;;;;;;10.43;8.83;;;17.90;28.20;;;;;;6269417;28;20221;-60
2023/04/07 16:18:41;;;;;;;18.57;8.17;;;;;;;;;;6289841;28;20193;-59
2023/04/07 16:21:42;;;;;;;10.30;8.33;;;;;;;;;;6289397;28;20210;-59
2023/04/07 16:24:43;;;;;;;11.13;8.30;;;;;;;;;;6257076;28;20201;-60
2023/04/07 16:27:45;;;;;;;10.03;8.93;;;;;;;;;;6252123;28;20186;-60
2023/04/07 16:30:46;;;;;;;10.40;8.90;;;;;;;;;;6267001;28;20190;-59
2023/04/07 16:33:49;;;;;;;10.40;9.30;;;;;;;;;;6272951;28;20284;-59
2023/04/07 16:36:50;;;;;;;10.53;9.37;;;;;;;;;;6288773;28;20202;-59
2023/04/07 16:39:55;;;;;;;9.00;8.10;;;;;;;;;;6253707;28;20296;-59
2023/04/07 16:42:56;;;;;;;10.50;8.83;;;;;;;;;;6289439;28;20214;-59
2023/04/07 16:45:58;;;;;;;12.60;9.93;;;;;;;;;;6276020;28;20193;-59
2023/04/07 16:49:02;;;;;;;8.83;7.93;;;;;;;;;;6256627;28;20278;-59
2023/04/07 16:52:03;;;;;;;11.00;9.53;;;;;;;;;;6256933;28;20207;-60
2023/04/07 16:55:04;;;;;;;10.63;8.77;;;;;;;;;;6267085;28;20198;-60
2023/04/07 16:58:05;;;;;;;11.73;9.90;;;;;;;;;;6273282;28;20198;-60
2023/04/07 17:01:06;;;;;;;12.70;9.87;;;;;;;;;;6289057;28;20307;-60
2023/04/07 17:04:07;;;;;;;10.00;8.40;;;;;;;;;;6248328;28;20232;-59
2023/04/07 17:07:08;;;;;;;10.20;8.60;;;;;;;;;;6247788;28;20201;-59
2023/04/07 17:10:10;;;;;;;10.43;9.10;;;;;;;;;;6267112;28;20194;-60
2023/04/07 17:13:11;;;;;;;9.57;8.60;;;;;;;;;;6271947;28;20191;-60
2023/04/07 17:16:13;;;;;;;12.17;9.80;;;;;;;;;;6255777;28;20258;-60
2023/04/07 17:19:14;;;;;;;11.70;9.07;;;;;;;;;;6256069;28;20190;-59
2023/04/07 17:22:15;;;;;;;11.10;9.90;;;;;;;;;;6244093;28;20217;-59
2023/04/07 17:25:16;;;;;;;10.47;9.37;;;;;;;;;;6254336;28;20220;-61
2023/04/07 17:28:17;;;;;;;11.13;9.00;;;;;;;;;;6255666;28;20198;-60
2023/04/07 17:31:18;;;;;;;14.40;10.00;;;;;;;;;;6255270;28;20275;-65
2023/04/07 17:34:19;;;;;;;11.93;9.53;;;;;;;;;;6272370;28;20343;-66
2023/04/07 17:37:20;;;;;;;12.47;8.57;;;;;;;;;;6254340;28;20193;-64
2023/04/07 17:40:22;;;;;;;13.40;10.63;;;;;;;;;;6256521;28;20193;-64
2023/04/07 17:43:23;;;;;;;13.67;10.30;;;;;;;;;;6289269;28;20228;-64